Time;durP1;ratioP1;P1;durP2;ratioP2;P2;SDS_P1;SDS_P2;PMS_P1;PMS_P2;Temp;Humidity;BMP_temperature;BMP_pressure;BME280_temperature;BME280_humidity;BME280_pressure;Samples;Min_cycle;Max_cycle;Signal;HPM_P1;HPM_P2
2022/11/11 00:00:59;;;;;;;0.10;0.10;;;;;;;17.82;66.78;100444.16;7364269;19;20023;-55
2022/11/11 00:03:24;;;;;;;0.10;0.10;;;;;;;17.80;67.20;100435.50;7363166;19;20046;-56
2022/11/11 00:05:49;;;;;;;0.10;0.10;;;;;;;17.82;67.11;100436.25;7363831;19;20947;-56
2022/11/11 00:08:15;;;;;;;0.08;0.08;;;;;;;17.81;66.95;100431.91;7364957;19;20025;-56
2022/11/11 00:10:40;;;;;;;0.00;0.00;;;;;;;17.82;66.72;100438.03;7362976;19;20086;-56
2022/11/11 00:13:06;;;;;;;0.10;0.10;;;;;;;17.80;66.77;100440.78;7364400;19;20025;-57
2022/11/11 00:15:36;;;;;;;0.10;0.10;;;;;;;17.79;67.13;100444.38;7363597;19;20030;-56
2022/11/11 00:26:14;;;;;;;0.10;0.10;;;;;;;17.83;66.79;100445.88;7360555;19;20037;-56
2022/11/11 00:28:40;;;;;;;0.10;0.10;;;;;;;17.83;66.80;100432.66;7364731;19;22774;-56
2022/11/11 00:31:11;;;;;;;0.10;0.10;;;;;;;17.86;66.78;100432.50;7362048;19;20411;-56
2022/11/11 00:33:37;;;;;;;0.10;0.10;;;;;;;17.84;66.58;100444.94;7359447;19;20014;-56
2022/11/11 00:36:03;;;;;;;0.10;0.10;;;;;;;17.83;66.76;100439.75;7362890;19;20634;-56
2022/11/11 00:38:44;;;;;;;0.10;0.10;;;;;;;17.82;66.64;100460.03;7357921;19;20027;-56
2022/11/11 00:41:10;;;;;;;0.10;0.10;;;;;;;17.84;66.57;100420.31;7361634;19;20013;-57
2022/11/11 00:43:36;;;;;;;0.10;0.10;;;;;;;17.85;66.52;100411.47;7359529;19;20841;-56
2022/11/11 00:51:29;;;;;;;0.00;0.00;;;;;;;17.85;66.94;100411.47;7363765;19;20034;-56
2022/11/11 00:53:55;;;;;;;0.10;0.10;;;;;;;17.85;66.50;100406.19;7364504;19;21096;-56
2022/11/11 00:56:21;;;;;;;0.10;0.10;;;;;;;17.84;66.67;100423.81;7364168;19;20041;-56
2022/11/11 00:58:47;;;;;;;0.00;0.00;;;;;;;17.82;66.82;100407.19;7362935;19;20077;-55
2022/11/11 01:01:12;;;;;;;0.10;0.10;;;;;;;17.82;66.92;100407.19;7363912;19;20027;-56
2022/11/11 01:03:38;;;;;;;0.10;0.10;;;;;;;17.81;66.56;100402.84;7364482;19;20045;-56
2022/11/11 01:06:04;;;;;;;0.10;0.10;;;;;;;17.82;66.97;100411.63;7362262;19;20596;-56
2022/11/11 01:08:31;;;;;;;0.10;0.10;;;;;;;17.75;66.79;100387.38;7365050;19;20013;-56
2022/11/11 01:10:56;;;;;;;0.10;0.10;;;;;;;17.82;66.55;100401.06;7361755;19;20010;-56
2022/11/11 01:13:24;;;;;;;0.10;0.10;;;;;;;17.81;66.56;100389.66;7364968;19;21665;-57
2022/11/11 01:15:53;;;;;;;0.10;0.10;;;;;;;17.82;66.35;100407.19;7361521;19;20403;-55
2022/11/11 01:18:23;;;;;;;0.10;0.10;;;;;;;17.82;66.50;100391.34;7361889;19;20085;-55
2022/11/11 01:21:00;;;;;;;0.10;0.10;;;;;;;17.83;66.17;100408.88;7360214;19;20019;-56
2022/11/11 01:23:27;;;;;;;0.10;0.10;;;;;;;17.68;66.49;100387.75;7364431;19;20497;-56
2022/11/11 01:25:52;;;;;;;0.10;0.10;;;;;;;17.73;66.81;100391.88;7362340;19;20973;-55
2022/11/11 01:28:18;;;;;;;0.10;0.10;;;;;;;17.78;66.15;100403.00;7362562;19;20019;-56
2022/11/11 01:30:43;;;;;;;0.10;0.10;;;;;;;17.79;66.13;100410.03;7361512;19;20034;-54
2022/11/11 01:33:10;;;;;;;0.10;0.10;;;;;;;17.77;66.43;100396.03;7362291;19;20390;-55
2022/11/11 01:35:40;;;;;;;0.00;0.00;;;;;;;17.78;66.21;100405.66;7362040;19;20026;-55
2022/11/11 01:38:07;;;;;;;0.10;0.10;;;;;;;17.73;66.72;100394.50;7362744;19;20026;-54
2022/11/11 01:40:40;;;;;;;0.00;0.00;;;;;;;17.77;66.16;100405.75;7362884;19;20011;-56
2022/11/11 01:43:05;;;;;;;0.10;0.10;;;;;;;17.75;66.50;100416.41;7363009;19;20021;-55
2022/11/11 01:45:47;;;;;;;0.10;0.10;;;;;;;17.76;66.38;100417.25;7362539;19;20010;-56
2022/11/11 01:51:38;;;;;;;0.10;0.10;;;;;;;17.72;66.60;100421.81;7260310;19;2004537;-56
2022/11/11 01:54:20;;;;;;;0.05;0.05;;;;;;;17.70;66.39;100423.72;7360844;19;20019;-56
2022/11/11 01:56:49;;;;;;;0.10;0.10;;;;;;;17.69;66.73;100439.63;7362467;19;20011;-53
2022/11/11 01:59:16;;;;;;;0.10;0.10;;;;;;;17.64;66.40;100421.44;7359728;19;20026;-56
2022/11/11 02:01:43;;;;;;;0.10;0.10;;;;;;;17.62;66.93;100415.38;7363672;19;20019;-56
2022/11/11 02:06:56;;;;;;;0.00;0.00;;;;;;;17.61;66.58;100432.16;7361002;19;20014;-56
2022/11/11 02:09:23;;;;;;;0.10;0.10;;;;;;;17.60;66.65;100425.19;7361166;19;20027;-56
2022/11/11 02:14:43;;;;;;;0.10;0.10;;;;;;;17.63;66.43;100432.91;7358179;19;20017;-56
2022/11/11 02:17:12;;;;;;;0.10;0.10;;;;;;;17.61;66.63;100429.50;7361450;19;20517;-56
2022/11/11 02:19:42;;;;;;;0.10;0.10;;;;;;;17.62;66.91;100428.56;7358673;19;20007;-57
2022/11/11 02:22:13;;;;;;;0.10;0.10;;;;;;;17.64;66.91;100455.75;7361882;19;20581;-56
2022/11/11 02:24:41;;;;;;;0.10;0.10;;;;;;;17.67;66.54;100450.28;7360779;19;20860;-54
2022/11/11 02:27:10;;;;;;;0.10;0.10;;;;;;;17.59;66.58;100420.84;7365997;19;20474;-55
2022/11/11 02:29:37;;;;;;;0.00;0.00;;;;;;;17.67;66.94;100439.72;7367618;19;20025;-56
2022/11/11 02:32:03;;;;;;;0.10;0.10;;;;;;;17.69;66.58;100437.00;7368833;19;20030;-56
2022/11/11 02:34:30;;;;;;;0.00;0.00;;;;;;;17.69;67.15;100459.00;7365427;19;20091;-56
2022/11/11 02:36:56;;;;;;;;;;;;;;;17.74;66.45;100430.56;7370717;19;20021;-56
2022/11/11 02:39:23;;;;;;;0.00;0.00;;;;;;;17.59;66.84;100400.56;7365633;19;20628;-56
2022/11/11 02:41:57;;;;;;;0.10;0.10;;;;;;;17.69;66.71;100424.66;7368380;19;20697;-56
2022/11/11 02:44:24;;;;;;;0.10;0.10;;;;;;;17.70;66.98;100429.00;7366386;19;20050;-57
2022/11/11 02:46:50;;;;;;;0.10;0.10;;;;;;;17.70;66.76;100417.59;7371967;19;20029;-54
2022/11/11 02:49:16;;;;;;;0.10;0.10;;;;;;;17.71;66.71;100435.97;7365242;19;20565;-56
2022/11/11 02:51:41;;;;;;;0.10;0.10;;;;;;;17.72;66.95;100421.81;7369193;19;20010;-56
2022/11/11 02:54:07;;;;;;;0.00;0.00;;;;;;;17.73;67.02;100418.28;7365783;19;20914;-55
2022/11/11 02:59:16;;;;;;;0.10;0.10;;;;;;;17.75;66.87;100429.63;7357655;19;20013;-56
2022/11/11 03:01:41;;;;;;;0.10;0.10;;;;;;;17.75;66.89;100421.69;7367742;19;20006;-56
2022/11/11 03:04:07;;;;;;;0.05;0.05;;;;;;;17.74;66.81;100420.00;7366692;19;20824;-54
2022/11/11 03:06:32;;;;;;;0.10;0.10;;;;;;;17.75;66.52;100416.41;7368267;19;20011;-56
2022/11/11 03:08:58;;;;;;;0.00;0.00;;;;;;;17.75;66.65;100411.13;7366192;19;20470;-55
2022/11/11 03:11:29;;;;;;;0.10;0.10;;;;;;;17.76;66.95;100418.13;7365516;19;20014;-56
2022/11/11 03:13:58;;;;;;;0.00;0.00;;;;;;;17.75;67.08;100418.22;7362562;19;20020;-56
2022/11/11 03:19:08;;;;;;;0.00;0.00;;;;;;;17.79;66.68;100415.31;7364658;19;21113;-56
2022/11/11 03:21:34;;;;;;;0.00;0.00;;;;;;;17.77;66.69;100409.25;7367479;19;20010;-57
2022/11/11 03:23:59;;;;;;;0.00;0.00;;;;;;;17.75;66.64;100416.41;7367993;19;20382;-56
2022/11/11 03:26:25;;;;;;;0.00;0.00;;;;;;;17.71;66.44;100414.84;7364493;19;20014;-55
2022/11/11 03:28:51;;;;;;;0.10;0.10;;;;;;;17.77;66.36;100393.41;7362733;19;20014;-55
2022/11/11 03:31:16;;;;;;;0.10;0.10;;;;;;;17.80;66.55;100409.09;7366138;19;20017;-56
2022/11/11 03:33:42;;;;;;;0.10;0.10;;;;;;;17.68;66.64;100401.81;7364942;19;20058;-56
2022/11/11 03:36:08;;;;;;;0.10;0.10;;;;;;;17.77;66.41;100397.84;7360700;19;20010;-56
2022/11/11 03:38:33;;;;;;;0.10;0.10;;;;;;;17.76;66.75;100386.41;7361989;19;20446;-54
2022/11/11 03:40:58;;;;;;;0.10;0.10;;;;;;;17.76;66.32;100396.97;7366556;19;20007;-57
2022/11/11 03:43:26;;;;;;;0.10;0.10;;;;;;;17.78;66.15;100400.38;7364812;19;20018;-56
2022/11/11 03:45:54;;;;;;;0.10;0.10;;;;;;;17.79;66.00;100433.81;7366332;19;20022;-56
2022/11/11 03:48:20;;;;;;;0.05;0.05;;;;;;;17.77;66.38;100414.53;7364202;19;20014;-55
2022/11/11 03:50:46;;;;;;;0.00;0.00;;;;;;;17.76;66.23;100407.53;7363614;19;20029;-55
2022/11/11 03:53:13;;;;;;;0.00;0.00;;;;;;;17.77;66.02;100418.97;7364413;19;20015;-56
2022/11/11 03:55:39;;;;;;;0.10;0.10;;;;;;;17.70;65.78;100402.59;7365035;19;21426;-55
2022/11/11 03:58:05;;;;;;;0.10;0.10;;;;;;;17.77;65.66;100403.97;7362415;19;20022;-56
2022/11/11 04:00:30;;;;;;;0.10;0.10;;;;;;;17.77;65.79;100438.28;7365159;19;20095;-56
2022/11/11 04:11:43;;;;;;;0.10;0.10;;;;;;;17.77;65.77;100421.59;7365976;19;20876;-55
2022/11/11 04:16:54;;;;;;;0.10;0.10;;;;;;;17.73;65.51;100423.56;7361687;19;20890;-56
2022/11/11 04:22:23;;;;;;;0.00;0.00;;;;;;;17.73;65.58;100428.00;7255772;19;2004347;-56
2022/11/11 04:27:33;;;;;;;0.10;0.10;;;;;;;17.79;65.56;100440.84;7358857;19;20026;-56
2022/11/11 04:29:58;;;;;;;0.10;0.10;;;;;;;17.78;65.44;100432.06;7363188;19;20026;-56
2022/11/11 04:32:37;;;;;;;0.10;0.10;;;;;;;17.74;65.44;100420.00;7361495;19;20738;-56
2022/11/11 04:35:11;;;;;;;0.08;0.08;;;;;;;17.77;65.42;100434.81;7363393;19;20011;-57
2022/11/11 04:37:46;;;;;;;0.00;0.00;;;;;;;17.74;65.41;100435.84;7362555;19;20718;-56
2022/11/11 04:42:56;;;;;;;0.03;0.03;;;;;;;17.74;65.08;100427.94;7364490;19;20013;-56
2022/11/11 04:45:27;;;;;;;0.10;0.10;;;;;;;17.75;65.32;100426.97;7363139;19;20018;-56
2022/11/11 04:48:00;;;;;;;0.10;0.10;;;;;;;17.78;65.56;100432.06;7361965;19;20027;-56
2022/11/11 04:50:31;;;;;;;0.10;0.10;;;;;;;17.77;64.94;100429.53;7359615;19;20073;-56
2022/11/11 04:52:57;;;;;;;0.00;0.00;;;;;;;17.77;65.40;100414.53;7362937;19;20006;-56
2022/11/11 04:58:08;;;;;;;0.10;0.10;;;;;;;17.75;65.25;100421.69;7364974;19;20037;-56
2022/11/11 05:00:34;;;;;;;0.00;0.00;;;;;;;17.75;65.11;100419.06;7363733;19;20022;-56
2022/11/11 05:03:15;;;;;;;0.10;0.10;;;;;;;17.70;64.92;100392.03;7364684;19;20014;-56
2022/11/11 05:11:20;;;;;;;0.10;0.10;;;;;;;17.78;64.58;100444.44;7360569;19;20771;-56
2022/11/11 05:22:27;;;;;;;0.10;0.10;;;;;;;17.78;64.50;100440.00;7363406;19;20021;-56
2022/11/11 05:27:37;;;;;;;0.10;0.10;;;;;;;17.77;64.24;100446.22;7361884;19;20039;-56
2022/11/11 05:30:05;;;;;;;0.00;0.00;;;;;;;17.79;64.73;100454.94;7363341;19;22199;-57
2022/11/11 05:32:30;;;;;;;0.05;0.05;;;;;;;17.78;64.86;100447.91;7362106;19;20006;-56
2022/11/11 05:34:55;;;;;;;0.10;0.10;;;;;;;17.79;64.40;100452.28;7362965;19;20018;-56
2022/11/11 05:37:21;;;;;;;0.10;0.10;;;;;;;17.80;64.34;100453.97;7362843;19;20037;-56
2022/11/11 05:39:46;;;;;;;0.10;0.10;;;;;;;17.81;64.13;100458.31;7363646;19;20577;-57
2022/11/11 05:42:12;;;;;;;0.00;0.00;;;;;;;17.82;63.91;100444.16;7362937;19;20007;-56
2022/11/11 05:44:37;;;;;;;0.00;0.00;;;;;;;17.83;64.05;100456.44;7357202;19;20736;-55
2022/11/11 05:47:03;;;;;;;0.05;0.05;;;;;;;17.83;64.12;100450.31;7363319;19;20050;-56
2022/11/11 05:49:29;;;;;;;0.10;0.10;;;;;;;17.76;64.47;100439.25;7361244;19;20121;-56
2022/11/11 05:51:55;;;;;;;0.00;0.00;;;;;;;17.74;64.28;100430.56;7361642;19;20078;-56
2022/11/11 05:54:21;;;;;;;0.10;0.10;;;;;;;17.86;64.03;100461.56;7361190;19;20029;-57
2022/11/11 05:56:48;;;;;;;0.00;0.00;;;;;;;17.85;63.95;100449.28;7363359;19;20027;-56
2022/11/11 05:59:13;;;;;;;0.08;0.08;;;;;;;17.85;64.29;100444.00;7359397;19;20042;-55
2022/11/11 06:01:39;;;;;;;0.00;0.00;;;;;;;17.89;64.24;100481.66;7363844;19;20015;-56
2022/11/11 06:04:05;;;;;;;0.00;0.00;;;;;;;17.91;63.94;100460.44;7367539;19;20029;-54
2022/11/11 06:06:31;;;;;;;0.00;0.00;;;;;;;17.93;63.46;100458.56;7369697;19;20017;-56
2022/11/11 06:08:56;;;;;;;0.10;0.10;;;;;;;17.92;63.67;100460.34;7367850;19;20024;-56
2022/11/11 06:11:22;;;;;;;0.10;0.10;;;;;;;17.86;63.63;100444.84;7369312;19;20082;-56
2022/11/11 06:13:48;;;;;;;0.03;0.03;;;;;;;17.93;63.59;100471.75;7366984;19;20030;-56
2022/11/11 06:16:14;;;;;;;0.00;0.00;;;;;;;17.94;63.73;100478.75;7368289;19;20038;-56
2022/11/11 06:18:39;;;;;;;0.10;0.10;;;;;;;17.93;63.11;100466.47;7369464;19;21528;-55
2022/11/11 06:21:05;;;;;;;0.00;0.00;;;;;;;17.95;63.12;100465.47;7368946;19;20022;-55
2022/11/11 06:23:31;;;;;;;0.10;0.10;;;;;;;17.98;62.96;100480.28;7368312;19;20493;-56
2022/11/11 06:26:12;;;;;;;0.10;0.10;;;;;;;17.96;62.93;100476.88;7365434;19;20034;-55
2022/11/11 06:28:48;;;;;;;0.10;0.10;;;;;;;18.00;63.11;100475.78;7368155;19;20031;-56
2022/11/11 06:31:23;;;;;;;0.10;0.10;;;;;;;17.98;63.20;100485.56;7366091;19;20011;-56
2022/11/11 06:33:48;;;;;;;0.00;0.00;;;;;;;17.97;62.99;100483.88;7367043;19;20007;-56
2022/11/11 06:36:18;;;;;;;0.10;0.10;;;;;;;18.00;63.25;100487.19;7368995;19;20025;-56
2022/11/11 06:38:43;;;;;;;0.10;0.10;;;;;;;18.00;63.02;100481.06;7368970;19;20013;-56
2022/11/11 06:41:13;;;;;;;0.03;0.03;;;;;;;18.00;62.68;100473.13;7368277;19;20177;-54
2022/11/11 06:43:42;;;;;;;0.10;0.10;;;;;;;17.93;62.78;100506.13;7366852;19;20010;-56
2022/11/11 06:46:19;;;;;;;0.00;0.00;;;;;;;17.96;63.23;100488.31;7367703;19;20078;-55
2022/11/11 06:48:45;;;;;;;0.10;0.10;;;;;;;18.00;62.66;100510.13;7368720;19;20010;-56
2022/11/11 06:51:12;;;;;;;0.00;0.00;;;;;;;18.01;62.57;100470.41;7367255;19;22154;-56
2022/11/11 06:53:37;;;;;;;0.10;0.10;;;;;;;18.05;62.47;100497.50;7366114;19;20549;-55
2022/11/11 06:56:03;;;;;;;0.10;0.10;;;;;;;18.03;62.40;100494.09;7366890;19;21116;-56
2022/11/11 06:58:28;;;;;;;0.10;0.10;;;;;;;18.05;62.12;100490.44;7355859;19;20006;-56
2022/11/11 07:00:54;;;;;;;0.08;0.08;;;;;;;18.05;62.05;100481.66;7366120;19;20014;-56
2022/11/11 07:03:20;;;;;;;0.00;0.00;;;;;;;18.09;62.34;100483.16;7365366;19;20049;-56
2022/11/11 07:05:46;;;;;;;0.10;0.10;;;;;;;18.09;61.92;100485.81;7367323;19;20042;-56
2022/11/11 07:08:14;;;;;;;0.10;0.10;;;;;;;18.11;61.78;100481.28;7365923;19;20010;-56
2022/11/11 07:10:43;;;;;;;0.10;0.10;;;;;;;18.10;62.02;100463.75;7366579;19;20026;-55
2022/11/11 07:13:09;;;;;;;0.10;0.10;;;;;;;18.05;61.74;100497.50;7364435;19;20377;-56
2022/11/11 07:15:36;;;;;;;0.10;0.10;;;;;;;18.04;61.89;100486.06;7365610;19;20010;-56
2022/11/11 07:18:01;;;;;;;0.10;0.10;;;;;;;18.03;61.74;100479.09;7363638;19;20017;-56
2022/11/11 07:20:27;;;;;;;0.10;0.10;;;;;;;18.02;61.49;100526.75;7364580;19;20010;-56
2022/11/11 07:22:52;;;;;;;0.10;0.10;;;;;;;17.99;61.54;100513.69;7366471;19;20010;-56
2022/11/11 07:25:18;;;;;;;0.10;0.10;;;;;;;17.89;61.78;100497.50;7364888;19;20021;-56
2022/11/11 07:27:43;;;;;;;0.10;0.10;;;;;;;17.84;61.88;100492.50;7364298;19;20015;-56
2022/11/11 07:30:10;;;;;;;0.10;0.10;;;;;;;17.94;61.82;100513.09;7363260;19;20018;-56
2022/11/11 07:32:36;;;;;;;0.10;0.10;;;;;;;17.91;62.21;100518.56;7367725;19;20039;-56
2022/11/11 07:35:02;;;;;;;0.10;0.10;;;;;;;17.90;62.17;100544.13;7361869;19;20014;-57
2022/11/11 07:37:30;;;;;;;0.10;0.10;;;;;;;17.83;62.09;100530.41;7365520;19;20024;-56
2022/11/11 07:39:55;;;;;;;0.10;0.10;;;;;;;17.86;62.28;100530.25;7361169;19;20014;-56
2022/11/11 07:42:21;;;;;;;0.10;0.10;;;;;;;17.92;62.16;100531.69;7360314;19;20054;-56
2022/11/11 07:44:46;;;;;;;0.03;0.03;;;;;;;17.95;62.22;100541.25;7361093;19;20013;-56
2022/11/11 07:47:11;;;;;;;0.10;0.10;;;;;;;17.96;62.08;100532.38;7365918;19;20119;-56
2022/11/11 07:49:37;;;;;;;0.10;0.10;;;;;;;17.97;62.07;100526.16;7361124;19;20545;-56
2022/11/11 07:52:03;;;;;;;0.10;0.10;;;;;;;17.95;62.05;100528.88;7365429;19;20082;-54
2022/11/11 07:54:28;;;;;;;0.10;0.10;;;;;;;17.99;62.02;100540.09;7364868;19;20101;-56
2022/11/11 07:56:53;;;;;;;0.10;0.10;;;;;;;18.01;62.35;100540.88;7365503;19;20041;-55
2022/11/11 07:59:19;;;;;;;0.10;0.10;;;;;;;17.98;62.48;100570.97;7364653;19;20589;-56
2022/11/11 08:01:44;;;;;;;0.10;0.10;;;;;;;18.02;62.50;100564.56;7354364;19;22331;-57
2022/11/11 08:04:10;;;;;;;0.10;0.10;;;;;;;18.05;62.19;100555.66;7366213;19;20010;-56
2022/11/11 08:06:36;;;;;;;0.10;0.10;;;;;;;18.06;62.37;100575.84;7363560;19;20014;-55
2022/11/11 08:09:01;;;;;;;0.00;0.00;;;;;;;18.11;62.68;100576.44;7365061;19;20114;-55
2022/11/11 08:14:11;;;;;;;0.10;0.10;;;;;;;18.12;63.15;100572.84;7362251;19;20023;-56
2022/11/11 08:16:36;;;;;;;0.10;0.10;;;;;;;18.15;63.12;100572.69;7363209;19;20018;-56
2022/11/11 08:19:02;;;;;;;0.10;0.10;;;;;;;18.10;63.46;100557.09;7358140;19;20013;-53
2022/11/11 08:21:27;;;;;;;0.10;0.10;;;;;;;18.15;63.22;100562.13;7365752;19;20020;-57
2022/11/11 08:23:53;;;;;;;0.10;0.10;;;;;;;18.16;63.40;100558.53;7362174;19;20014;-57
2022/11/11 08:26:20;;;;;;;0.10;0.10;;;;;;;18.17;63.67;100560.22;7360111;19;20101;-57
2022/11/11 08:28:46;;;;;;;0.10;0.10;;;;;;;18.16;63.39;100569.09;7364770;19;20858;-55
2022/11/11 08:31:12;;;;;;;0.00;0.00;;;;;;;18.07;63.61;100553.75;7364208;19;20149;-56
2022/11/11 08:33:37;;;;;;;0.05;0.05;;;;;;;18.15;63.30;100565.59;7366485;19;20049;-55
2022/11/11 08:36:04;;;;;;;0.00;0.00;;;;;;;18.16;63.28;100563.81;7364488;19;21363;-56
2022/11/11 08:38:30;;;;;;;0.10;0.10;;;;;;;18.00;63.48;100537.41;7364537;19;20839;-56
2022/11/11 08:40:59;;;;;;;0.10;0.10;;;;;;;18.21;63.09;100576.78;7362279;19;21390;-56
2022/11/11 08:43:25;;;;;;;0.10;0.10;;;;;;;18.20;63.46;100583.84;7366238;19;20415;-55
2022/11/11 08:45:53;;;;;;;0.10;0.10;;;;;;;18.20;63.08;100565.34;7364433;19;20070;-56
2022/11/11 08:48:18;;;;;;;0.10;0.10;;;;;;;18.17;63.73;100565.50;7364118;19;20014;-56
2022/11/11 08:50:44;;;;;;;0.10;0.10;;;;;;;18.19;63.17;100586.56;7365113;19;20010;-56
2022/11/11 08:53:10;;;;;;;0.10;0.10;;;;;;;18.20;63.28;100581.22;7355323;19;20374;-55
2022/11/11 08:55:36;;;;;;;0.10;0.10;;;;;;;18.15;63.63;100593.81;7364013;19;22538;-56
2022/11/11 08:58:05;;;;;;;0.10;0.10;;;;;;;18.25;63.39;100594.13;7363127;19;20014;-54
2022/11/11 09:00:32;;;;;;;0.00;0.00;;;;;;;18.26;63.35;100607.28;7363757;19;20014;-56
2022/11/11 09:03:02;;;;;;;0.10;0.10;;;;;;;18.31;63.08;100599.94;7364382;19;20483;-56
2022/11/11 09:05:27;;;;;;;0.00;0.00;;;;;;;18.20;63.18;100582.97;7364523;19;20015;-57
2022/11/11 09:07:53;;;;;;;0.10;0.10;;;;;;;18.24;63.02;100598.56;7364665;19;21113;-57
2022/11/11 09:10:18;;;;;;;0.00;0.00;;;;;;;18.33;62.46;100608.63;7363356;19;20018;-56
2022/11/11 09:12:44;;;;;;;0.10;0.10;;;;;;;18.34;62.79;100610.34;7362830;19;25565;-56
2022/11/11 09:15:09;;;;;;;0.10;0.10;;;;;;;18.32;62.44;100604.28;7364716;19;20011;-57
2022/11/11 09:17:35;;;;;;;0.10;0.10;;;;;;;18.37;62.83;100614.63;7361873;19;20070;-56
2022/11/11 09:20:00;;;;;;;0.10;0.10;;;;;;;18.42;62.47;100607.28;7365232;19;20010;-54
2022/11/11 09:22:25;;;;;;;0.10;0.10;;;;;;;18.41;62.46;100595.84;7365425;19;20010;-56
2022/11/11 09:24:51;;;;;;;0.10;0.10;;;;;;;18.45;62.41;100606.22;7363582;19;20014;-56
2022/11/11 09:27:16;;;;;;;0.10;0.10;;;;;;;18.48;62.58;100621.94;7361925;19;20022;-56
2022/11/11 09:29:42;;;;;;;0.10;0.10;;;;;;;18.47;62.70;100629.03;7363021;19;20118;-56
2022/11/11 09:32:07;;;;;;;0.10;0.10;;;;;;;18.52;62.51;100634.06;7363196;19;20006;-56
2022/11/11 09:34:32;;;;;;;0.10;0.10;;;;;;;18.53;62.78;100641.03;7365056;19;20480;-56
2022/11/11 09:36:58;;;;;;;0.10;0.10;;;;;;;18.53;62.88;100641.03;7366550;19;20010;-54
2022/11/11 09:39:23;;;;;;;0.10;0.10;;;;;;;18.54;63.05;100642.72;7369518;19;20097;-56
2022/11/11 09:41:52;;;;;;;0.10;0.10;;;;;;;18.57;62.92;100621.41;7370240;19;20006;-56
2022/11/11 09:44:51;;;;;;;0.10;0.10;;;;;;;18.59;62.46;100636.25;7369919;19;20366;-53
2022/11/11 09:47:25;;;;;;;0.10;0.10;;;;;;;18.57;63.19;100656.66;7270292;19;2004136;-56
2022/11/11 09:50:08;;;;;;;0.10;0.10;;;;;;;18.62;62.63;100664.31;7366556;19;20070;-56
2022/11/11 09:52:54;;;;;;;0.10;0.10;;;;;;;18.60;62.55;100652.97;7371563;19;20133;-55
2022/11/11 09:55:29;;;;;;;0.10;0.10;;;;;;;18.61;62.91;100670.56;7369592;19;20035;-56
2022/11/11 09:58:00;;;;;;;0.10;0.10;;;;;;;18.57;62.74;100653.16;7368799;19;20616;-56
2022/11/11 10:00:30;;;;;;;0.10;0.10;;;;;;;18.60;62.68;100674.13;7369704;19;20057;-56
2022/11/11 10:03:15;;;;;;;0.10;0.10;;;;;;;18.62;62.82;100681.03;7368582;19;20010;-57
2022/11/11 10:05:58;;;;;;;0.00;0.00;;;;;;;18.62;62.92;100712.78;7370360;19;20070;-57
2022/11/11 10:08:29;;;;;;;0.10;0.10;;;;;;;18.65;62.85;100672.06;7369182;19;20054;-55
2022/11/11 10:10:58;;;;;;;0.10;0.10;;;;;;;18.65;63.03;100690.59;7367125;19;20029;-56
2022/11/11 10:13:36;;;;;;;0.10;0.10;;;;;;;18.67;62.81;100673.69;7369467;19;20491;-55
2022/11/11 10:16:32;;;;;;;0.10;0.10;;;;;;;18.67;62.84;100691.38;7369069;19;20010;-56
2022/11/11 10:19:13;;;;;;;0.10;0.10;;;;;;;18.70;62.89;100664.75;7266791;19;2004534;-55
2022/11/11 10:21:53;;;;;;;0.10;0.10;;;;;;;18.70;62.55;100671.84;7371844;19;20007;-56
2022/11/11 10:24:29;;;;;;;0.00;0.00;;;;;;;18.66;62.76;100655.28;7369959;19;20014;-57
2022/11/11 10:26:54;;;;;;;0.00;0.00;;;;;;;18.66;62.83;100657.94;7368574;19;20093;-56
2022/11/11 10:29:23;;;;;;;0.10;0.10;;;;;;;18.68;62.48;100650.78;7368723;19;20094;-56
2022/11/11 10:32:01;;;;;;;0.10;0.10;;;;;;;18.69;62.83;100647.19;7368717;19;20597;-56
2022/11/11 10:34:32;;;;;;;0.10;0.10;;;;;;;18.72;62.63;100673.47;7370000;19;20006;-55
2022/11/11 10:36:58;;;;;;;0.03;0.03;;;;;;;18.62;62.82;100632.59;7367978;19;20018;-56
2022/11/11 10:39:43;;;;;;;0.10;0.10;;;;;;;18.74;62.64;100647.78;7369160;19;20612;-56
2022/11/11 10:42:17;;;;;;;0.10;0.10;;;;;;;18.74;62.85;100650.41;7368488;19;20478;-57
2022/11/11 10:44:43;;;;;;;0.10;0.10;;;;;;;18.72;63.32;100639.09;7365281;19;20012;-56
2022/11/11 10:47:20;;;;;;;0.10;0.10;;;;;;;18.79;62.75;100645.72;7365250;19;20038;-57
2022/11/11 10:49:52;;;;;;;;;;;;;;;18.83;62.60;100676.34;7363748;19;20771;-56
2022/11/11 10:52:31;;;;;;;0.10;0.10;;;;;;;18.88;62.68;100671.66;7363754;19;20739;-56
2022/11/11 10:55:03;;;;;;;0.10;0.10;;;;;;;18.85;62.45;100661.22;7360505;19;20600;-56
2022/11/11 10:57:37;;;;;;;0.10;0.10;;;;;;;18.86;62.54;100655.03;7364716;19;20848;-56
2022/11/11 11:00:08;;;;;;;0.08;0.08;;;;;;;18.88;62.80;100658.41;7365421;19;20011;-56
2022/11/11 11:03:05;;;;;;;0.00;0.00;;;;;;;18.90;62.61;100666.25;7364553;19;20102;-57
2022/11/11 11:05:49;;;;;;;0.10;0.10;;;;;;;18.90;62.86;100661.81;7264301;19;2004655;-56
2022/11/11 11:08:20;;;;;;;0.10;0.10;;;;;;;18.89;62.47;100641.59;7358635;19;20023;-56
2022/11/11 11:10:58;;;;;;;0.10;0.10;;;;;;;18.90;62.87;100643.28;7357963;19;20010;-56
2022/11/11 11:13:24;;;;;;;0.10;0.10;;;;;;;18.89;62.60;100649.53;7351958;19;20018;-57
2022/11/11 11:15:56;;;;;;;0.10;0.10;;;;;;;18.90;62.36;100651.22;7361574;19;22479;-56
2022/11/11 11:18:23;;;;;;;0.10;0.10;;;;;;;18.94;62.70;100659.84;7357580;19;20470;-56
2022/11/11 11:21:08;;;;;;;0.10;0.10;;;;;;;18.93;62.30;100644.94;7361515;19;20503;-56
2022/11/11 11:23:44;;;;;;;0.10;0.10;;;;;;;18.80;62.80;100613.03;7354127;19;20775;-56
2022/11/11 11:26:12;;;;;;;0.10;0.10;;;;;;;19.02;62.44;100665.56;7359438;19;20002;-56
2022/11/11 11:29:07;;;;;;;0.10;0.10;;;;;;;19.07;62.79;100657.34;7355856;19;20018;-56
2022/11/11 11:31:38;;;;;;;0.10;0.10;;;;;;;18.97;62.87;100658.84;7256859;19;2004378;-56
2022/11/11 11:34:03;;;;;;;0.10;0.10;;;;;;;19.06;62.27;100682.09;7357273;19;20006;-57
2022/11/11 11:36:29;;;;;;;0.10;0.10;;;;;;;19.10;62.21;100687.13;7357199;19;21579;-57
2022/11/11 11:38:54;;;;;;;0.10;0.10;;;;;;;19.08;62.54;100688.16;7353437;19;20064;-56
2022/11/11 11:41:48;;;;;;;0.10;0.10;;;;;;;19.13;62.16;100694.06;7360294;19;20542;-56
2022/11/11 11:44:37;;;;;;;0.10;0.10;;;;;;;19.11;62.24;100687.97;7261408;19;2004110;-56
2022/11/11 11:47:28;;;;;;;0.10;0.10;;;;;;;19.10;62.50;100683.63;7361524;19;20007;-56
2022/11/11 11:50:32;;;;;;;0.10;0.10;;;;;;;19.12;62.64;100705.59;7261917;19;2004712;-56
2022/11/11 11:53:16;;;;;;;0.10;0.10;;;;;;;19.13;62.41;100704.63;7255593;19;2004216;-56
2022/11/11 11:55:57;;;;;;;0.10;0.10;;;;;;;19.13;62.98;100689.59;7356554;19;20044;-55
2022/11/11 11:58:23;;;;;;;0.10;0.10;;;;;;;19.09;63.13;100688.06;7358278;19;20740;-56
2022/11/11 12:01:27;;;;;;;0.00;0.00;;;;;;;19.13;62.68;100699.34;7354345;19;20002;-56
2022/11/11 12:03:55;;;;;;;0.10;0.10;;;;;;;19.13;62.68;100712.56;7255009;19;2004418;-56
2022/11/11 12:06:35;;;;;;;0.10;0.10;;;;;;;19.18;63.20;100714.00;7361001;19;20564;-54
2022/11/11 12:09:16;;;;;;;0.10;0.10;;;;;;;19.24;63.07;100704.84;7360429;19;20056;-56
2022/11/11 12:12:02;;;;;;;0.10;0.10;;;;;;;19.24;62.60;100733.97;7360976;19;20014;-56
2022/11/11 12:14:52;;;;;;;0.10;0.10;;;;;;;19.27;62.72;100712.63;7357510;19;20081;-58
2022/11/11 12:17:35;;;;;;;0.10;0.10;;;;;;;19.28;62.47;100714.34;7360908;19;20010;-57
2022/11/11 12:20:03;;;;;;;0.10;0.10;;;;;;;19.25;62.73;100717.16;7360696;19;21029;-57
2022/11/11 12:22:42;;;;;;;0.10;0.10;;;;;;;19.26;62.77;100703.00;7362304;19;20021;-56
2022/11/11 12:25:38;;;;;;;0.10;0.10;;;;;;;19.33;63.03;100722.84;7359950;19;20023;-54
2022/11/11 12:28:22;;;;;;;0.10;0.10;;;;;;;19.37;62.87;100745.56;7254299;19;2004363;-56
2022/11/11 12:30:57;;;;;;;0.10;0.10;;;;;;;19.37;62.75;100732.34;7356294;19;20421;-55
2022/11/11 12:34:08;;;;;;;0.00;0.00;;;;;;;19.43;62.87;100733.75;7360586;19;20018;-57
2022/11/11 12:37:00;;;;;;;0.10;0.10;;;;;;;19.43;62.79;100798.16;7257127;19;2004421;-57
2022/11/11 12:39:50;;;;;;;0.08;0.08;;;;;;;19.51;62.94;100796.88;7359573;19;20006;-57
2022/11/11 12:42:39;;;;;;;0.10;0.10;;;;;;;19.53;62.27;100744.66;7361581;19;20616;-56
2022/11/11 12:45:20;;;;;;;0.10;0.10;;;;;;;19.56;62.17;100765.66;7360128;19;20010;-57
2022/11/11 12:47:51;;;;;;;0.10;0.10;;;;;;;19.54;62.17;100751.66;7360742;19;20018;-57